RJFKRJFR

Guest
Details From RJFK - KAGOSHIMA
To RJFR - NEW KITAKYUSHU
Flight Number -
Tags generated
Created
Modified
Stats Distance 124 nm / 229 km
Max Altitude 11,600 ft / 3,536 m
Waypoints 3
Social Downloads 0
Likes 0
Share VATSIM

Download

Looking for another format? Having issues loading an existing format? Contact us
Advertisement - Login to hide

Notes

Basic altitude profile: - Ascent Rate: 2500ft/min - Ascent Speed: 250kts - Cruise Altitude: 35000ft - Cruise Speed: 420kts - Descent Rate: 1500ft/min - Descent Speed: 250kts Options: - Use NATs: yes - Use PACOTS: yes - Use low airways: yes - Use high airways: yes

Route

RJFK TUJUN RJFR

ID Type Via Altitude Latitude Longitude Leg Dist Tot Dist Heading (true) Name
O RJFK APT - 0 ft / 0 m 31.80340˚ 130.71941˚ - 0 nm - KAGOSHIMA
TUJUN FIX - 11,600 ft / 3,536 m 32.86618˚ 130.91152˚ 64 nm 64 nm 9° / 9° -
O RJFR APT - 0 ft / 0 m 33.84594˚ 131.03469˚ 59 nm 123 nm 6° / 6° NEW KITAKYUSHU

Altitude Profile

Advertisement - Login to hide

RJFK

Details ICAO RJFK (KOJ)
Name KAGOSHIMA
Region Japan
Timezone Asia/Tokyo (UTC+9.0)
Stats Elevation 906 ft / 276 m (AMSL)
Location 31.803400° 130.719405°
Runways 1
Magnetic Variation 6.946° W

METAR

Not found

TAF

TAF RJFK 272306Z 2800/2906 12012KT 9000 -SHRA FEW010 SCT015 BKN025 TEMPO 2800/2803 4000 -SHRA BR BECMG 2900/2903 18005KT

Decode

Departure Runways

ID Width Length Bearing (true) Bearing (mag) Surface Threshold Offset Overrun Length
16 150 ft / 46 m 9,861 ft / 3,006 m 150.11° 157.06° Asphalt 0 ft / 0 m 200 ft / 61 m
34 150 ft / 46 m 9,861 ft / 3,006 m 330.11° 337.06° Asphalt 0 ft / 0 m 200 ft / 61 m

RJFR

Details ICAO RJFR (KKJ)
Name NEW KITAKYUSHU
Region Japan
Timezone Asia/Tokyo (UTC+9.0)
Stats Elevation 21 ft / 6 m (AMSL)
Location 33.845940° 131.034689°
Runways 1
Magnetic Variation 7.568° W

METAR

Not found

TAF

TAF AMD TAF AMD RJFR 280113Z 2801/2906 10010KT 8000 -RA FEW005 SCT015 BKN045 TEMPO 2815/2900 4000 -SHRA BR FEW003 BKN005 BKN008 TEMPO 2900/2906 4000 -SHRA BR FEW003 SCT005 BKN008

Decode

Destination Runways

ID Width Length Bearing (true) Bearing (mag) Surface Threshold Offset Overrun Length
18 260 ft / 79 m 8,625 ft / 2,629 m 170.36° 177.93° Asphalt 0 ft / 0 m 0 ft / 0 m
36 260 ft / 79 m 8,625 ft / 2,629 m 350.36° 357.93° Asphalt 0 ft / 0 m 0 ft / 0 m

Approach Navaids

Runway Type Ident Frequency Range Bearing (true) Bearing (mag) Slope Elevation
18 Localiser IKQ 109.15 MHz 18 nm / 33 km 169.76° 177.33° - 54 ft / 16 m (AMSL)
18 Glidescope IKQ 109.15 MHz 10 nm / 19 km 170.36° 177.93° 3.00° 46 ft / 14 m (AMSL)

Popular Alternatives